DAOO

Es Senia Airport

Oran, Algeria
METAR DAOO 151630Z 25008KT CAVOK 16/07 Q1026
Observed Flight Rules
Dec-15 @ 16:30 UTC (33 minutes ago) Visual Flight Rules
Wind Visibility Clouds
250° at 8 knots 10,000+ meters
  • Clear skies
Temperatures Readings
Current 16°C / 61°F
Dewpoint 7°C / 45°F
Humidity 55%
Altimeter 30.3" Hg
Pressure 1026 hPa
Elevation 90
METAR DAOO 151630Z 25008KT CAVOK 16/07 Q1026
Observed Flight Rules
Dec-15 @ 16:30 UTC
(33 minutes ago)
VFR
Wind Visibility
250° at 8 knots 10,000+ meters
Clouds
  • Clear skies
Temperature Dewpoint
16°C / 61°F 7°C / 45°F
Humidity Altimeter Pressure
55% 30.3" Hg 1026 hPa